Alvo, NE

4:53 PM CDT on September 19, 2014 (GMT -0500)
274th & Fletcher Ave | Change Station
CLOSE
Current Station
Personal Weather Station
Location: Elmwood, NE
Elevation: 1290 ft
Nearby Weather Stations

Elev 1290 ft 40.87 °N, 96.33 °W | Updated 23 seconds ago

Clear
Clear
87.3 °F
Feels Like 91 °F
N
20.0
Wind Variable Wind from SSE
Gusts 28.0 mph

Today
High -- | Low -- °F
--% Chance of Precip.
Yesterday
High -- | Low -- °F
Precip. -- in
7:10 AM 7:27 PM
Waning Crescent, 16% visible
Pressure 29.78 in
Visibility 10.0 miles
Clouds Clear
Heat Index 91 °F
Dew Point 68 °F
Humidity 53%
Rainfall 0.00 in
Snow Depth Not available.
UV 5 out of 12
Pollen 7.30 out of 12
Air Quality Not available.
Flu Activity Not available.
METAR KLNK 192054Z 21019G27KT 10SM CLR 32/17 A2981 RMK AO2 PK WND 21028/2034 SLP084 T03220167 56021

More Conditions Fewer Conditions

Pressure 29.78 in
Visibility 10.0 miles
Clouds Clear
Heat Index 91 °F
Dew Point 68 °F
Humidity 53%
Rainfall 0.00 in
Snow Depth Not available.
UV 5 out of 12
Pollen 7.30 out of 12
Air Quality Not available.
Flu Activity Not available.
METAR KLNK 192054Z 21019G27KT 10SM CLR 32/17 A2981 RMK AO2 PK WND 21028/2034 SLP084 T03220167 56021

More Conditions Fewer Conditions

10-Day Weather Forecast

Almanac

Astronomy

Sep. 19, 2014 Rise Set
Actual Time 7:10 AM CDT 7:27 PM CDT
Civil Twilight 6:42 AM CDT 7:55 PM CDT
Nautical Twilight 6:10 AM CDT 8:27 PM CDT
Astronomical Twilight 5:37 AM CDT 9:00 PM CDT
Moon 2:54 AM CDT 4:58 PM CDT
Length of Visible Light 13h 12m
Length of Day
12h 17m
Tomorrow will be 2m 42s shorter.
Waning Crescent, 16% of the Moon is Illuminated
Today
Waning Crescent
Sep 24
New
Oct 1
First Quarter
Oct 8
Full
Oct 15
Last Quarter

Today's Extremes

State Highs State Lows

Community

WunderPhotos

Upload Photos

1,754,703 photos uploaded!

WunderBlogs® & News

By Dr. Jeff Masters
Director of Meteorology, Weather Underground
By Kari Strenfel
Meteorologist, Weather Underground
By Christopher C. Burt
Weather Historian, Weather Underground
September 19, 2014
September 19, 2014
September 19, 2014

Nearby

Snow Depth

Station Depth Elevation
No new snow has been reported.

Earthquake Activity

City Distance Mag. Time & Date
No recent earthquake activity has been reported nearby.
Minimum magnitude displayed is 2.5.

Coastal Water Temperatures

Place Temperature
No Stations Reporting

Nearby Weather Stations